Time,TemperatureF,DewpointF,PressureIn,WindDirection,WindDirectionDegrees,WindSpeedMPH,WindSpeedGustMPH,Humidity,HourlyPrecipIn,Conditions,Clouds,dailyrainin,SoftwareType,DateUTC
2013-04-09 00:00:00,50.5,44.6,29.75,SSE,157,2.0,11.0,80,0.00,,,0.01,Wunderground v.1.15,2013-04-09 04:00:00,
2013-04-09 00:10:00,51.8,45.5,29.75,South,190,3.0,11.0,79,0.00,,,0.00,Wunderground v.1.15,2013-04-09 04:10:00,
2013-04-09 00:20:00,52.9,45.9,29.75,SSW,200,3.0,3.0,77,0.00,,,0.00,Wunderground v.1.15,2013-04-09 04:20:00,
2013-04-09 00:30:00,53.3,46.3,29.75,SSE,164,2.0,11.0,77,0.00,,,0.00,Wunderground v.1.15,2013-04-09 04:30:00,
2013-04-09 00:40:00,54.5,47.1,29.75,South,177,2.0,2.0,76,0.00,,,0.00,Wunderground v.1.15,2013-04-09 04:40:00,
2013-04-09 00:51:00,56.1,47.9,29.75,SSW,194,3.0,11.0,74,0.00,,,0.00,Wunderground v.1.15,2013-04-09 04:51:00,
2013-04-09 01:01:00,60.0,50.2,29.75,SSW,210,4.0,11.0,70,0.00,,,0.00,Wunderground v.1.15,2013-04-09 05:01:00,
2013-04-09 01:10:00,62.9,50.5,29.76,West,263,7.0,7.0,64,0.00,,,0.00,Wunderground v.1.15,2013-04-09 05:10:00,
2013-04-09 01:21:00,64.6,51.3,29.76,SW,229,7.0,11.0,62,0.00,,,0.00,Wunderground v.1.15,2013-04-09 05:21:00,
2013-04-09 01:31:00,63.8,51.4,29.78,NNW,332,9.0,11.0,64,0.00,,,0.00,Wunderground v.1.15,2013-04-09 05:31:00,
2013-04-09 01:41:00,60.0,50.2,29.79,NW,321,8.0,11.0,70,0.00,,,0.00,Wunderground v.1.15,2013-04-09 05:41:00,
2013-04-09 01:50:00,58.2,49.6,29.79,WSW,241,6.0,6.0,73,0.00,,,0.00,Wunderground v.1.15,2013-04-09 05:50:00,
2013-04-09 02:00:00,57.3,49.8,29.80,SW,221,4.0,11.0,76,0.00,,,0.00,Wunderground v.1.15,2013-04-09 06:00:00,
2013-04-09 02:10:00,58.2,50.3,29.80,NNW,340,7.0,7.0,75,0.00,,,0.00,Wunderground v.1.15,2013-04-09 06:10:00,
2013-04-09 02:20:00,58.8,50.2,29.80,SSW,211,9.0,9.0,73,0.00,,,0.00,Wunderground v.1.15,2013-04-09 06:20:00,
2013-04-09 02:30:00,58.6,49.2,29.80,West,271,10.0,11.0,71,0.00,,,0.00,Wunderground v.1.15,2013-04-09 06:30:00,
2013-04-09 02:40:00,58.3,48.9,29.80,SSW,204,11.0,13.0,71,0.00,,,0.00,Wunderground v.1.15,2013-04-09 06:40:00,
2013-04-09 02:50:00,57.7,48.7,29.82,West,269,11.0,17.0,72,0.00,,,0.00,Wunderground v.1.15,2013-04-09 06:50:00,
2013-04-09 03:00:00,56.9,48.7,29.82,SSW,213,11.0,14.0,74,0.00,,,0.00,Wunderground v.1.15,2013-04-09 07:00:00,
2013-04-09 03:10:00,56.4,48.6,29.83,South,186,11.0,11.0,75,0.00,,,0.00,Wunderground v.1.15,2013-04-09 07:10:00,
2013-04-09 03:20:00,56.2,48.7,29.83,SSW,207,10.0,10.0,76,0.00,,,0.00,Wunderground v.1.15,2013-04-09 07:20:00,
2013-04-09 03:30:00,55.8,48.3,29.84,SW,236,9.0,9.0,76,0.00,,,0.00,Wunderground v.1.15,2013-04-09 07:30:00,
2013-04-09 03:40:00,55.3,48.2,29.84,West,273,10.0,10.0,77,0.00,,,0.00,Wunderground v.1.15,2013-04-09 07:40:00,
2013-04-09 03:50:00,54.4,47.7,29.84,West,260,10.0,13.0,78,0.00,,,0.00,Wunderground v.1.15,2013-04-09 07:50:00,
2013-04-09 04:00:00,53.7,47.0,29.84,WSW,244,11.0,13.0,78,0.00,,,0.00,Wunderground v.1.15,2013-04-09 08:00:00,
2013-04-09 04:10:00,53.2,46.5,29.85,West,269,11.0,11.0,78,0.00,,,0.00,Wunderground v.1.15,2013-04-09 08:10:00,
2013-04-09 04:21:00,52.8,46.1,29.85,West,269,11.0,11.0,78,0.00,,,0.00,Wunderground v.1.15,2013-04-09 08:21:00,
2013-04-09 04:30:00,52.6,45.9,29.86,SW,214,11.0,12.0,78,0.00,,,0.00,Wunderground v.1.15,2013-04-09 08:30:00,
2013-04-09 04:40:00,52.4,46.1,29.87,West,277,9.0,14.0,79,0.00,,,0.00,Wunderground v.1.15,2013-04-09 08:40:00,
2013-04-09 04:50:00,52.2,45.9,29.89,SW,225,8.0,8.0,79,0.00,,,0.00,Wunderground v.1.15,2013-04-09 08:50:00,
2013-04-09 05:00:00,51.9,45.9,29.89,West,266,9.0,11.0,80,0.00,,,0.00,Wunderground v.1.15,2013-04-09 09:00:00,
2013-04-09 05:09:00,51.7,45.7,29.90,NW,304,9.0,9.0,80,0.00,,,0.00,Wunderground v.1.15,2013-04-09 09:09:00,
2013-04-09 05:20:00,51.4,45.8,29.91,West,275,11.0,11.0,81,0.00,,,0.00,Wunderground v.1.15,2013-04-09 09:20:00,
2013-04-09 05:30:00,51.0,45.7,29.91,WSW,255,9.0,13.0,82,0.00,,,0.00,Wunderground v.1.15,2013-04-09 09:30:00,
2013-04-09 05:40:00,50.6,45.6,29.92,SW,232,10.0,11.0,83,0.00,,,0.00,Wunderground v.1.15,2013-04-09 09:40:00,
2013-04-09 05:50:00,50.3,45.3,29.93,NW,305,9.0,11.0,83,0.00,,,0.00,Wunderground v.1.15,2013-04-09 09:50:00,
2013-04-09 06:00:00,49.9,44.9,29.94,SW,234,11.0,18.0,83,0.00,,,0.00,Wunderground v.1.15,2013-04-09 10:00:00,
2013-04-09 06:10:00,49.6,44.6,29.95,SW,228,10.0,14.0,83,0.00,,,0.00,Wunderground v.1.15,2013-04-09 10:10:00,
2013-04-09 06:20:00,49.2,44.6,29.96,West,264,9.0,10.0,84,0.00,,,0.00,Wunderground v.1.15,2013-04-09 10:20:00,
2013-04-09 06:30:00,48.9,44.3,29.97,West,271,9.0,9.0,84,0.00,,,0.00,Wunderground v.1.15,2013-04-09 10:30:00,
2013-04-09 06:40:00,48.6,44.6,29.97,West,276,7.0,7.0,86,0.00,,,0.00,Wunderground v.1.15,2013-04-09 10:40:00,
2013-04-09 06:50:00,48.2,44.5,29.98,SW,234,8.0,26.0,87,0.00,,,0.00,Wunderground v.1.15,2013-04-09 10:50:00,
2013-04-09 07:00:00,47.8,44.1,30.00,SW,219,8.0,8.0,87,0.00,,,0.00,Wunderground v.1.15,2013-04-09 11:00:00,
2013-04-09 07:10:00,47.7,44.0,30.00,SSW,205,6.0,6.0,87,0.00,,,0.00,Wunderground v.1.15,2013-04-09 11:10:00,
2013-04-09 07:20:00,47.8,44.1,30.01,NNW,338,7.0,7.0,87,0.00,,,0.00,Wunderground v.1.15,2013-04-09 11:20:00,
2013-04-09 07:30:00,47.5,43.2,30.02,NW,320,8.0,8.0,85,0.00,,,0.00,Wunderground v.1.15,2013-04-09 11:30:00,
2013-04-09 07:40:00,46.9,42.6,30.03,WNW,290,6.0,6.0,85,0.00,,,0.00,Wunderground v.1.15,2013-04-09 11:40:00,
2013-04-09 07:50:00,46.7,42.4,30.04,NNW,332,7.0,26.0,85,0.00,,,0.00,Wunderground v.1.15,2013-04-09 11:50:00,
2013-04-09 08:00:00,46.3,42.0,30.04,NNW,332,8.0,8.0,85,0.00,,,0.00,Wunderground v.1.15,2013-04-09 12:00:00,
2013-04-09 08:10:00,46.0,41.1,30.06,West,280,8.0,8.0,83,0.00,,,0.00,Wunderground v.1.15,2013-04-09 12:10:00,
2013-04-09 08:20:00,45.9,41.0,30.05,NW,313,7.0,26.0,83,0.00,,,0.00,Wunderground v.1.15,2013-04-09 12:20:00,
2013-04-09 08:30:00,45.9,41.0,30.06,WNW,286,5.0,26.0,83,0.00,,,0.00,Wunderground v.1.15,2013-04-09 12:30:00,
2013-04-09 08:41:00,45.9,41.0,30.06,NW,304,6.0,26.0,83,0.00,,,0.00,Wunderground v.1.15,2013-04-09 12:41:00,
2013-04-09 08:51:00,45.8,40.6,30.07,West,259,6.0,6.0,82,0.00,,,0.00,Wunderground v.1.15,2013-04-09 12:51:00,
2013-04-09 09:00:00,45.8,40.9,30.06,WNW,287,6.0,26.0,83,0.00,,,0.00,Wunderground v.1.15,2013-04-09 13:00:00,
2013-04-09 09:10:00,45.8,40.9,30.07,NW,307,5.0,5.0,83,0.00,,,0.00,Wunderground v.1.15,2013-04-09 13:10:00,
2013-04-09 09:21:00,46.0,41.1,30.07,NW,306,6.0,26.0,83,0.00,,,0.00,Wunderground v.1.15,2013-04-09 13:21:00,
2013-04-09 09:31:00,46.1,41.2,30.08,WNW,285,5.0,5.0,83,0.00,,,0.00,Wunderground v.1.15,2013-04-09 13:31:00,
2013-04-09 09:41:00,46.4,41.2,30.08,WSW,248,4.0,26.0,82,0.00,,,0.00,Wunderground v.1.15,2013-04-09 13:41:00,
2013-04-09 09:49:00,46.4,41.2,30.08,West,273,5.0,26.0,82,0.00,,,0.00,Wunderground v.1.15,2013-04-09 13:49:00,
2013-04-09 10:00:00,46.7,41.2,30.09,NNW,328,5.0,26.0,81,0.00,,,0.00,Wunderground v.1.15,2013-04-09 14:00:00,
2013-04-09 10:10:00,46.9,41.7,30.08,NW,317,5.0,5.0,82,0.00,,,0.00,Wunderground v.1.15,2013-04-09 14:10:00,
2013-04-09 10:20:00,47.3,41.8,30.09,WNW,288,3.0,3.0,81,0.00,,,0.00,Wunderground v.1.15,2013-04-09 14:20:00,
2013-04-09 10:30:00,47.8,41.9,30.09,NW,311,4.0,26.0,80,0.00,,,0.00,Wunderground v.1.15,2013-04-09 14:30:00,
2013-04-09 10:40:00,48.1,41.9,30.09,West,259,4.0,26.0,79,0.00,,,0.00,Wunderground v.1.15,2013-04-09 14:40:00,
2013-04-09 10:50:00,48.6,42.7,30.09,WSW,248,4.0,26.0,80,0.00,,,0.00,Wunderground v.1.15,2013-04-09 14:50:00,
2013-04-09 11:00:00,49.2,42.0,30.09,NW,304,4.0,4.0,76,0.00,,,0.00,Wunderground v.1.15,2013-04-09 15:00:00,
2013-04-09 11:19:00,50.9,43.3,30.09,West,273,4.0,7.0,75,0.00,,,0.00,Wunderground v.1.15,2013-04-09 15:19:00,
2013-04-09 11:30:00,51.6,43.6,30.09,WSW,252,3.0,5.0,74,0.00,,,0.00,Wunderground v.1.15,2013-04-09 15:30:00,
2013-04-09 11:40:00,52.1,43.3,30.09,West,279,5.0,5.0,72,0.00,,,0.00,Wunderground v.1.15,2013-04-09 15:40:00,
2013-04-09 11:50:00,52.1,43.3,30.09,WSW,240,5.0,5.0,72,0.00,,,0.00,Wunderground v.1.15,2013-04-09 15:50:00,
2013-04-09 12:00:00,53.1,44.7,30.08,SW,226,4.0,5.0,73,0.00,,,0.00,Wunderground v.1.15,2013-04-09 16:00:00,
2013-04-09 12:10:00,53.7,44.9,30.08,North,360,4.0,4.0,72,0.00,,,0.00,Wunderground v.1.15,2013-04-09 16:10:00,
2013-04-09 12:20:00,54.1,44.5,30.08,West,267,3.0,10.0,70,0.00,,,0.00,Wunderground v.1.15,2013-04-09 16:20:00,
2013-04-09 12:30:00,55.1,45.1,30.07,West,269,3.0,3.0,69,0.00,,,0.00,Wunderground v.1.15,2013-04-09 16:30:00,
2013-04-09 12:40:00,55.3,44.5,30.08,SW,223,4.0,4.0,67,0.00,,,0.00,Wunderground v.1.15,2013-04-09 16:40:00,
2013-04-09 12:50:00,55.7,44.9,30.06,SSW,196,4.0,4.0,67,0.00,,,0.00,Wunderground v.1.15,2013-04-09 16:50:00,
2013-04-09 13:11:00,56.2,44.6,30.05,NNW,329,3.0,10.0,65,0.00,,,0.00,Wunderground v.1.15,2013-04-09 17:11:00,
2013-04-09 13:20:00,56.4,46.0,30.06,WNW,286,4.0,10.0,68,0.00,,,0.00,Wunderground v.1.15,2013-04-09 17:20:00,
2013-04-09 13:30:00,56.0,44.0,30.05,NNE,13,3.0,3.0,64,0.00,,,0.00,Wunderground v.1.15,2013-04-09 17:30:00,
2013-04-09 13:39:00,57.3,44.4,30.04,NE,50,3.0,10.0,62,0.00,,,0.00,Wunderground v.1.15,2013-04-09 17:39:00,
2013-04-09 13:50:00,56.9,44.8,30.03,NW,316,3.0,10.0,64,0.00,,,0.00,Wunderground v.1.15,2013-04-09 17:50:00,
2013-04-09 14:00:00,58.4,45.8,30.02,North,9,4.0,10.0,63,0.00,,,0.00,Wunderground v.1.15,2013-04-09 18:00:00,
2013-04-09 14:10:00,57.2,45.5,30.03,WNW,287,2.0,10.0,65,0.00,,,0.00,Wunderground v.1.15,2013-04-09 18:10:00,
2013-04-09 14:20:00,58.5,45.5,30.03,SW,234,3.0,10.0,62,0.00,,,0.00,Wunderground v.1.15,2013-04-09 18:20:00,
2013-04-09 14:30:00,58.2,43.9,30.03,NW,312,3.0,10.0,59,0.00,,,0.00,Wunderground v.1.15,2013-04-09 18:30:00,
2013-04-09 14:40:00,58.9,45.5,30.03,SSW,211,2.0,10.0,61,0.00,,,0.00,Wunderground v.1.15,2013-04-09 18:40:00,
2013-04-09 14:50:00,59.6,45.7,30.02,SE,135,3.0,10.0,60,0.00,,,0.00,Wunderground v.1.15,2013-04-09 18:50:00,
2013-04-09 15:00:00,60.5,46.5,30.02,NNW,331,2.0,10.0,60,0.00,,,0.00,Wunderground v.1.15,2013-04-09 19:00:00,
2013-04-09 15:10:00,61.3,45.0,30.02,West,266,3.0,10.0,55,0.00,,,0.00,Wunderground v.1.15,2013-04-09 19:10:00,
2013-04-09 15:20:00,60.2,44.4,30.01,WSW,246,2.0,10.0,56,0.00,,,0.00,Wunderground v.1.15,2013-04-09 19:20:00,
2013-04-09 15:30:00,60.6,44.3,30.01,ENE,60,3.0,10.0,55,0.00,,,0.00,Wunderground v.1.15,2013-04-09 19:30:00,
2013-04-09 15:40:00,61.6,46.2,30.00,North,5,2.0,10.0,57,0.00,,,0.00,Wunderground v.1.15,2013-04-09 19:40:00,
2013-04-09 15:50:00,62.2,45.3,30.00,North,360,4.0,10.0,54,0.00,,,0.00,Wunderground v.1.15,2013-04-09 19:50:00,
2013-04-09 16:00:00,61.3,44.5,29.99,East,84,3.0,10.0,54,0.00,,,0.00,Wunderground v.1.15,2013-04-09 20:00:00,
2013-04-09 16:10:00,62.0,45.2,29.98,NNE,21,4.0,10.0,54,0.00,,,0.00,Wunderground v.1.15,2013-04-09 20:10:00,
2013-04-09 16:21:00,61.6,44.3,29.98,SSE,162,2.0,10.0,53,0.00,,,0.00,Wunderground v.1.15,2013-04-09 20:21:00,
2013-04-09 16:30:00,61.9,45.1,29.97,West,259,2.0,10.0,54,0.00,,,0.00,Wunderground v.1.15,2013-04-09 20:30:00,
2013-04-09 16:40:00,61.3,46.4,29.96,NNE,33,2.0,10.0,58,0.00,,,0.00,Wunderground v.1.15,2013-04-09 20:40:00,
2013-04-09 16:51:00,60.7,46.3,29.96,NE,36,6.0,10.0,59,0.00,,,0.00,Wunderground v.1.15,2013-04-09 20:51:00,
2013-04-09 17:01:00,60.4,46.4,29.98,North,360,7.0,10.0,60,0.00,,,0.00,Wunderground v.1.15,2013-04-09 21:01:00,
2013-04-09 17:11:00,59.6,45.7,29.98,North,11,8.0,10.0,60,0.00,,,0.00,Wunderground v.1.15,2013-04-09 21:11:00,
2013-04-09 17:19:00,58.6,45.6,29.99,North,5,8.0,10.0,62,0.00,,,0.00,Wunderground v.1.15,2013-04-09 21:19:00,
2013-04-09 17:30:00,57.1,45.4,30.00,North,355,7.0,7.0,65,0.00,,,0.00,Wunderground v.1.15,2013-04-09 21:30:00,
2013-04-09 17:40:00,55.4,44.6,30.00,North,5,8.0,10.0,67,0.00,,,0.00,Wunderground v.1.15,2013-04-09 21:40:00,
2013-04-09 17:50:00,54.3,44.3,29.99,North,5,10.0,10.0,69,0.00,,,0.00,Wunderground v.1.15,2013-04-09 21:50:00,
2013-04-09 18:00:00,53.0,44.2,29.99,NE,35,9.0,9.0,72,0.00,,,0.00,Wunderground v.1.15,2013-04-09 22:00:00,
2013-04-09 18:10:00,52.1,44.4,29.99,North,9,8.0,10.0,75,0.00,,,0.00,Wunderground v.1.15,2013-04-09 22:10:00,
2013-04-09 18:20:00,51.3,43.6,29.99,North,11,9.0,9.0,75,0.00,,,0.00,Wunderground v.1.15,2013-04-09 22:20:00,
2013-04-09 18:30:00,50.5,43.2,29.98,NNE,12,10.0,12.0,76,0.00,,,0.00,Wunderground v.1.15,2013-04-09 22:30:00,
2013-04-09 18:40:00,49.4,42.8,29.99,North,360,10.0,10.0,78,0.00,,,0.00,Wunderground v.1.15,2013-04-09 22:40:00,
2013-04-09 18:50:00,48.3,42.4,29.98,NNE,13,9.0,10.0,80,0.00,,,0.00,Wunderground v.1.15,2013-04-09 22:50:00,
2013-04-09 19:00:00,47.3,42.4,29.98,North,355,9.0,9.0,83,0.00,,,0.00,Wunderground v.1.15,2013-04-09 23:00:00,
2013-04-09 19:10:00,46.7,42.4,29.98,North,10,9.0,10.0,85,0.00,,,0.00,Wunderground v.1.15,2013-04-09 23:10:00,
2013-04-09 19:20:00,46.1,41.8,29.99,NNE,24,10.0,10.0,85,0.00,,,0.00,Wunderground v.1.15,2013-04-09 23:20:00,
2013-04-09 19:30:00,45.8,41.9,30.00,North,9,7.0,7.0,86,0.00,,,0.00,Wunderground v.1.15,2013-04-09 23:30:00,
2013-04-09 19:40:00,45.6,41.7,30.00,North,5,7.0,10.0,86,0.00,,,0.00,Wunderground v.1.15,2013-04-09 23:40:00,
2013-04-09 19:50:00,45.4,41.8,29.99,North,351,6.0,10.0,87,0.00,,,0.00,Wunderground v.1.15,2013-04-09 23:50:00,
2013-04-09 20:00:00,45.1,41.2,30.00,North,355,5.0,10.0,86,0.00,,,0.00,Wunderground v.1.15,2013-04-10 00:00:00,
2013-04-09 20:10:00,44.9,41.3,29.99,North,5,5.0,5.0,87,0.00,,,0.00,Wunderground v.1.15,2013-04-10 00:10:00,
2013-04-09 20:20:00,44.7,41.4,30.00,North,360,3.0,3.0,88,0.00,,,0.01,Wunderground v.1.15,2013-04-10 00:20:00,
2013-04-09 20:31:00,44.6,41.8,29.98,SE,132,1.0,10.0,90,0.06,,,0.02,Wunderground v.1.15,2013-04-10 00:31:00,
2013-04-09 20:40:00,44.5,41.7,29.98,East,96,2.0,2.0,90,0.04,,,0.02,Wunderground v.1.15,2013-04-10 00:40:00,
2013-04-09 20:51:00,44.4,41.7,29.98,East,101,1.0,10.0,90,0.00,,,0.02,Wunderground v.1.15,2013-04-10 00:51:00,
2013-04-09 21:01:00,44.5,42.0,29.96,ESE,116,2.0,10.0,91,0.00,,,0.03,Wunderground v.1.15,2013-04-10 01:01:00,
2013-04-09 21:11:00,44.4,41.9,29.98,South,170,2.0,2.0,91,0.06,,,0.04,Wunderground v.1.15,2013-04-10 01:11:00,
2013-04-09 21:20:00,44.5,42.3,29.96,SE,126,1.0,10.0,92,0.04,,,0.04,Wunderground v.1.15,2013-04-10 01:20:00,
2013-04-09 21:30:00,44.5,42.3,29.96,SSE,157,2.0,10.0,92,0.00,,,0.04,Wunderground v.1.15,2013-04-10 01:30:00,
2013-04-09 21:40:00,44.5,42.3,29.94,SSE,153,3.0,10.0,92,0.00,,,0.04,Wunderground v.1.15,2013-04-10 01:40:00,
2013-04-09 21:50:00,44.6,42.7,29.94,ESE,122,3.0,3.0,93,0.00,,,0.04,Wunderground v.1.15,2013-04-10 01:50:00,
2013-04-09 22:00:00,44.7,42.8,29.95,SW,215,2.0,2.0,93,0.00,,,0.05,Wunderground v.1.15,2013-04-10 02:00:00,
2013-04-09 22:10:00,44.9,43.0,29.97,NNW,348,1.0,10.0,93,0.26,,,0.08,Wunderground v.1.15,2013-04-10 02:10:00,
2013-04-09 22:20:00,45.0,43.1,29.96,NNE,14,2.0,10.0,93,0.22,,,0.14,Wunderground v.1.15,2013-04-10 02:20:00,
2013-04-09 22:30:00,44.9,43.0,29.97,North,350,4.0,10.0,93,0.24,,,0.18,Wunderground v.1.15,2013-04-10 02:30:00,
2013-04-09 22:40:00,44.7,43.1,29.96,North,355,2.0,2.0,94,0.31,,,0.25,Wunderground v.1.15,2013-04-10 02:40:00,
2013-04-09 22:50:00,44.7,43.1,29.94,SSE,148,2.0,10.0,94,0.34,,,0.31,Wunderground v.1.15,2013-04-10 02:50:00,
2013-04-09 23:00:00,44.9,43.6,29.94,SSE,147,3.0,10.0,95,0.20,,,0.36,Wunderground v.1.15,2013-04-10 03:00:00,
2013-04-09 23:10:00,45.0,43.7,29.92,SE,137,5.0,10.0,95,0.24,,,0.39,Wunderground v.1.15,2013-04-10 03:10:00,
2013-04-09 23:20:00,45.2,43.9,29.91,ESE,121,4.0,4.0,95,0.13,,,0.41,Wunderground v.1.15,2013-04-10 03:20:00,
2013-04-09 23:30:00,45.4,44.1,29.91,East,100,3.0,10.0,95,0.07,,,0.42,Wunderground v.1.15,2013-04-10 03:30:00,
2013-04-09 23:40:00,45.7,44.4,29.91,SSE,161,3.0,10.0,95,0.06,,,0.43,Wunderground v.1.15,2013-04-10 03:40:00,
2013-04-09 23:50:00,46.0,44.6,29.91,South,180,2.0,10.0,95,0.00,,,0.43,Wunderground v.1.15,2013-04-10 03:50:00,